sensor_id;sensor_type;location;lat;lon;timestamp;pressure;altitude;pressure_sealevel;temperature;humidity
11672;BME280;5892;43.412;24.612;2023-04-02T00:00:14;98874.06;;;11.13;86.78
11672;BME280;5892;43.412;24.612;2023-04-02T00:03:02;98868.09;;;11.11;86.37
11672;BME280;5892;43.412;24.612;2023-04-02T00:05:37;98858.75;;;11.12;86.17
11672;BME280;5892;43.412;24.612;2023-04-02T00:08:26;98851.06;;;10.90;85.60
11672;BME280;5892;43.412;24.612;2023-04-02T00:10:55;98794.41;;;10.66;85.60
11672;BME280;5892;43.412;24.612;2023-04-02T00:13:40;98867.44;;;11.14;85.45
11672;BME280;5892;43.412;24.612;2023-04-02T00:16:12;98789.28;;;10.65;84.90
11672;BME280;5892;43.412;24.612;2023-04-02T00:18:42;98871.25;;;11.25;84.79
11672;BME280;5892;43.412;24.612;2023-04-02T00:21:17;98867.59;;;11.21;83.65
11672;BME280;5892;43.412;24.612;2023-04-02T00:23:45;98855.69;;;11.29;83.57
11672;BME280;5892;43.412;24.612;2023-04-02T00:26:23;98860.72;;;11.27;82.46
11672;BME280;5892;43.412;24.612;2023-04-02T00:28:53;98865.97;;;11.32;81.52
11672;BME280;5892;43.412;24.612;2023-04-02T00:31:22;98815.31;;;10.98;81.37
11672;BME280;5892;43.412;24.612;2023-04-02T00:34:06;98803.91;;;10.84;80.94
11672;BME280;5892;43.412;24.612;2023-04-02T00:36:34;98844.06;;;11.20;81.18
11672;BME280;5892;43.412;24.612;2023-04-02T00:39:09;98846.13;;;11.23;81.60
11672;BME280;5892;43.412;24.612;2023-04-02T00:41:39;98838.78;;;11.27;81.20
11672;BME280;5892;43.412;24.612;2023-04-02T00:44:13;98874.56;;;11.46;80.91
11672;BME280;5892;43.412;24.612;2023-04-02T00:46:49;98792.38;;;10.91;81.48
11672;BME280;5892;43.412;24.612;2023-04-02T00:49:22;98879.28;;;11.46;80.38
11672;BME280;5892;43.412;24.612;2023-04-02T00:51:55;98835.78;;;11.32;80.18
11672;BME280;5892;43.412;24.612;2023-04-02T00:54:26;98752.03;;;10.76;79.82
11672;BME280;5892;43.412;24.612;2023-04-02T00:56:56;98830.31;;;11.04;79.89
11672;BME280;5892;43.412;24.612;2023-04-02T00:59:28;98785.84;;;10.95;79.69
11672;BME280;5892;43.412;24.612;2023-04-02T01:01:58;98787.53;;;10.72;79.06
11672;BME280;5892;43.412;24.612;2023-04-02T01:04:32;98879.53;;;11.57;78.79
11672;BME280;5892;43.412;24.612;2023-04-02T01:07:06;98875.91;;;11.53;79.40
11672;BME280;5892;43.412;24.612;2023-04-02T01:09:46;98887.44;;;11.58;79.05
11672;BME280;5892;43.412;24.612;2023-04-02T01:12:33;98895.31;;;11.60;79.20
11672;BME280;5892;43.412;24.612;2023-04-02T01:15:12;98872.78;;;11.38;79.27
11672;BME280;5892;43.412;24.612;2023-04-02T01:18:01;98867.59;;;11.49;78.81
11672;BME280;5892;43.412;24.612;2023-04-02T01:20:48;98893.03;;;11.62;78.79
11672;BME280;5892;43.412;24.612;2023-04-02T01:23:26;98880.00;;;11.59;78.41
11672;BME280;5892;43.412;24.612;2023-04-02T01:26:02;98867.59;;;11.49;78.66
11672;BME280;5892;43.412;24.612;2023-04-02T01:28:41;98890.97;;;11.59;77.95
11672;BME280;5892;43.412;24.612;2023-04-02T01:31:14;98888.22;;;11.59;77.52
11672;BME280;5892;43.412;24.612;2023-04-02T01:33:42;98895.84;;;11.65;78.56
11672;BME280;5892;43.412;24.612;2023-04-02T01:36:13;98842.38;;;11.16;78.26
11672;BME280;5892;43.412;24.612;2023-04-02T01:41:40;98910.75;;;11.52;77.63
11672;BME280;5892;43.412;24.612;2023-04-02T01:44:18;98907.72;;;11.69;77.88
11672;BME280;5892;43.412;24.612;2023-04-02T01:46:48;98883.63;;;11.63;80.62
11672;BME280;5892;43.412;24.612;2023-04-02T01:49:19;98919.19;;;11.59;82.78
11672;BME280;5892;43.412;24.612;2023-04-02T01:51:51;98907.34;;;11.55;83.59
11672;BME280;5892;43.412;24.612;2023-04-02T01:57:18;98861.81;;;11.11;84.24
11672;BME280;5892;43.412;24.612;2023-04-02T01:59:46;98902.31;;;11.29;83.89
11672;BME280;5892;43.412;24.612;2023-04-02T02:05:23;98837.72;;;10.88;84.78
11672;BME280;5892;43.412;24.612;2023-04-02T02:07:54;98917.16;;;11.28;84.04
11672;BME280;5892;43.412;24.612;2023-04-02T02:10:24;98895.16;;;11.25;84.50
11672;BME280;5892;43.412;24.612;2023-04-02T02:16:00;98904.25;;;11.29;83.25
11672;BME280;5892;43.412;24.612;2023-04-02T02:18:30;98858.69;;;10.96;83.39
11672;BME280;5892;43.412;24.612;2023-04-02T02:20:59;98933.22;;;11.42;82.12
11672;BME280;5892;43.412;24.612;2023-04-02T02:23:29;98922.00;;;11.47;81.69
11672;BME280;5892;43.412;24.612;2023-04-02T02:25:57;98900.22;;;11.38;81.84
11672;BME280;5892;43.412;24.612;2023-04-02T02:28:26;98909.19;;;11.51;81.70
11672;BME280;5892;43.412;24.612;2023-04-02T02:31:00;98911.81;;;11.47;81.01
11672;BME280;5892;43.412;24.612;2023-04-02T02:33:31;98882.06;;;11.34;80.04
11672;BME280;5892;43.412;24.612;2023-04-02T02:36:03;98874.13;;;11.17;81.26
11672;BME280;5892;43.412;24.612;2023-04-02T02:38:39;98919.63;;;11.45;81.09
11672;BME280;5892;43.412;24.612;2023-04-02T02:41:14;98897.59;;;11.58;81.34
11672;BME280;5892;43.412;24.612;2023-04-02T02:43:56;98884.47;;;11.35;81.07
11672;BME280;5892;43.412;24.612;2023-04-02T02:46:29;98920.94;;;11.52;80.56
11672;BME280;5892;43.412;24.612;2023-04-02T02:48:59;98910.75;;;11.52;79.67
11672;BME280;5892;43.412;24.612;2023-04-02T02:51:38;98778.28;;;10.77;79.87
11672;BME280;5892;43.412;24.612;2023-04-02T02:54:06;98830.44;;;11.08;79.41
11672;BME280;5892;43.412;24.612;2023-04-02T02:56:36;98919.53;;;11.58;80.07
11672;BME280;5892;43.412;24.612;2023-04-02T02:59:07;98917.16;;;11.56;81.07
11672;BME280;5892;43.412;24.612;2023-04-02T03:01:38;98902.78;;;11.47;82.55
11672;BME280;5892;43.412;24.612;2023-04-02T03:04:05;98910.75;;;11.52;82.69
11672;BME280;5892;43.412;24.612;2023-04-02T03:06:32;98857.63;;;11.01;82.30
11672;BME280;5892;43.412;24.612;2023-04-02T03:09:09;98914.22;;;11.49;81.57
11672;BME280;5892;43.412;24.612;2023-04-02T03:11:43;98901.09;;;11.42;81.29
11672;BME280;5892;43.412;24.612;2023-04-02T03:14:18;98890.28;;;11.34;80.72
11672;BME280;5892;43.412;24.612;2023-04-02T03:16:53;98907.94;;;11.48;80.82
11672;BME280;5892;43.412;24.612;2023-04-02T03:19:27;98873.09;;;11.21;81.08
11672;BME280;5892;43.412;24.612;2023-04-02T03:22:00;98908.69;;;11.33;80.95
11672;BME280;5892;43.412;24.612;2023-04-02T03:24:34;98922.78;;;11.47;80.38
11672;BME280;5892;43.412;24.612;2023-04-02T03:27:08;98811.78;;;10.86;81.00
11672;BME280;5892;43.412;24.612;2023-04-02T03:29:40;98918.56;;;11.50;79.84
11672;BME280;5892;43.412;24.612;2023-04-02T03:35:27;98924.16;;;11.54;80.57
11672;BME280;5892;43.412;24.612;2023-04-02T03:37:59;98830.09;;;10.82;80.86
11672;BME280;5892;43.412;24.612;2023-04-02T03:40:30;98932.72;;;11.52;81.01
11672;BME280;5892;43.412;24.612;2023-04-02T03:43:02;98956.16;;;11.50;80.88
11672;BME280;5892;43.412;24.612;2023-04-02T03:45:38;98888.81;;;11.09;80.40
11672;BME280;5892;43.412;24.612;2023-04-02T03:48:10;98849.75;;;10.72;80.63
11672;BME280;5892;43.412;24.612;2023-04-02T03:50:44;98947.06;;;11.45;81.07
11672;BME280;5892;43.412;24.612;2023-04-02T03:53:13;98936.25;;;11.53;80.78
11672;BME280;5892;43.412;24.612;2023-04-02T03:55:40;98936.31;;;11.40;80.83
11672;BME280;5892;43.412;24.612;2023-04-02T03:58:13;98956.16;;;11.50;81.24
11672;BME280;5892;43.412;24.612;2023-04-02T04:00:47;98939.72;;;11.50;81.17
11672;BME280;5892;43.412;24.612;2023-04-02T04:03:18;98942.78;;;11.48;80.80
11672;BME280;5892;43.412;24.612;2023-04-02T04:05:51;98805.72;;;10.65;81.01
11672;BME280;5892;43.412;24.612;2023-04-02T04:08:22;98946.00;;;11.50;80.12
11672;BME280;5892;43.412;24.612;2023-04-02T04:10:52;98941.50;;;11.30;81.22
11672;BME280;5892;43.412;24.612;2023-04-02T04:13:28;98937.59;;;11.31;81.67
11672;BME280;5892;43.412;24.612;2023-04-02T04:16:00;98964.66;;;11.44;81.94
11672;BME280;5892;43.412;24.612;2023-04-02T04:18:32;98954.03;;;11.31;81.12
11672;BME280;5892;43.412;24.612;2023-04-02T04:21:09;98919.28;;;11.07;81.74
11672;BME280;5892;43.412;24.612;2023-04-02T04:23:39;98939.78;;;10.97;82.31
11672;BME280;5892;43.412;24.612;2023-04-02T04:26:18;98937.59;;;10.91;82.10
11672;BME280;5892;43.412;24.612;2023-04-02T04:28:55;98958.78;;;11.18;81.64
11672;BME280;5892;43.412;24.612;2023-04-02T04:31:34;98987.75;;;11.31;81.87
11672;BME280;5892;43.412;24.612;2023-04-02T04:34:07;98989.44;;;11.36;81.01
11672;BME280;5892;43.412;24.612;2023-04-02T04:36:49;98986.13;;;11.42;81.32
11672;BME280;5892;43.412;24.612;2023-04-02T04:39:25;99005.44;;;11.46;80.87
11672;BME280;5892;43.412;24.612;2023-04-02T04:41:58;98941.44;;;11.14;80.44
11672;BME280;5892;43.412;24.612;2023-04-02T04:44:37;98979.19;;;11.33;80.30
11672;BME280;5892;43.412;24.612;2023-04-02T04:47:08;98996.59;;;11.53;79.72
11672;BME280;5892;43.412;24.612;2023-04-02T04:49:41;98995.31;;;11.62;79.70
11672;BME280;5892;43.412;24.612;2023-04-02T04:52:15;98999.78;;;11.67;80.16
11672;BME280;5892;43.412;24.612;2023-04-02T04:54:45;98998.84;;;11.63;79.15
11672;BME280;5892;43.412;24.612;2023-04-02T04:57:31;98977.81;;;11.39;79.27
11672;BME280;5892;43.412;24.612;2023-04-02T05:00:04;99018.06;;;11.75;78.70
11672;BME280;5892;43.412;24.612;2023-04-02T05:02:48;99022.16;;;11.81;78.24
11672;BME280;5892;43.412;24.612;2023-04-02T05:05:31;99029.66;;;11.84;78.59
11672;BME280;5892;43.412;24.612;2023-04-02T05:08:21;99026.06;;;11.96;77.62
11672;BME280;5892;43.412;24.612;2023-04-02T05:10:55;99043.34;;;11.96;76.87
11672;BME280;5892;43.412;24.612;2023-04-02T05:13:31;99059.06;;;12.11;76.40
11672;BME280;5892;43.412;24.612;2023-04-02T05:16:12;99045.34;;;12.11;77.38
11672;BME280;5892;43.412;24.612;2023-04-02T05:18:43;99058.88;;;12.20;76.75
11672;BME280;5892;43.412;24.612;2023-04-02T05:21:21;99039.13;;;12.14;75.60
11672;BME280;5892;43.412;24.612;2023-04-02T05:24:12;98925.78;;;11.42;75.53
11672;BME280;5892;43.412;24.612;2023-04-02T05:26:45;99003.78;;;11.97;74.16
11672;BME280;5892;43.412;24.612;2023-04-02T05:29:16;98976.59;;;11.92;74.72
11672;BME280;5892;43.412;24.612;2023-04-02T05:31:48;99054.16;;;12.48;74.02
11672;BME280;5892;43.412;24.612;2023-04-02T05:34:22;99057.09;;;12.55;73.50
11672;BME280;5892;43.412;24.612;2023-04-02T05:36:51;99078.81;;;12.76;72.62
11672;BME280;5892;43.412;24.612;2023-04-02T05:39:23;99041.56;;;12.63;71.55
11672;BME280;5892;43.412;24.612;2023-04-02T05:42:01;99058.16;;;12.82;71.02
11672;BME280;5892;43.412;24.612;2023-04-02T05:44:31;99081.03;;;13.02;71.64
11672;BME280;5892;43.412;24.612;2023-04-02T05:47:03;99064.97;;;13.04;71.57
11672;BME280;5892;43.412;24.612;2023-04-02T05:49:40;99061.69;;;13.14;70.31
11672;BME280;5892;43.412;24.612;2023-04-02T05:52:13;99070.91;;;13.22;68.71
11672;BME280;5892;43.412;24.612;2023-04-02T05:54:46;99095.69;;;13.56;68.98
11672;BME280;5892;43.412;24.612;2023-04-02T05:57:20;99082.31;;;13.74;67.17
11672;BME280;5892;43.412;24.612;2023-04-02T05:59:57;99095.78;;;13.98;66.17
11672;BME280;5892;43.412;24.612;2023-04-02T06:02:29;99069.91;;;14.03;66.23
11672;BME280;5892;43.412;24.612;2023-04-02T06:05:02;99100.84;;;14.35;64.96
11672;BME280;5892;43.412;24.612;2023-04-02T06:07:33;99098.84;;;14.74;63.40
11672;BME280;5892;43.412;24.612;2023-04-02T06:10:12;99044.84;;;14.50;61.69
11672;BME280;5892;43.412;24.612;2023-04-02T06:12:46;99086.28;;;15.25;60.94
11672;BME280;5892;43.412;24.612;2023-04-02T06:15:16;99084.28;;;15.22;61.14
11672;BME280;5892;43.412;24.612;2023-04-02T06:18:04;99041.78;;;15.01;60.50
11672;BME280;5892;43.412;24.612;2023-04-02T06:20:42;99069.63;;;15.18;60.90
11672;BME280;5892;43.412;24.612;2023-04-02T06:23:12;99097.38;;;15.52;60.61
11672;BME280;5892;43.412;24.612;2023-04-02T06:25:48;99078.50;;;15.87;58.53
11672;BME280;5892;43.412;24.612;2023-04-02T06:28:22;99076.63;;;15.95;58.61
11672;BME280;5892;43.412;24.612;2023-04-02T06:30:51;99090.03;;;15.93;58.18
11672;BME280;5892;43.412;24.612;2023-04-02T06:33:20;99062.13;;;16.01;58.12
11672;BME280;5892;43.412;24.612;2023-04-02T06:35:56;99067.59;;;15.98;58.54
11672;BME280;5892;43.412;24.612;2023-04-02T06:38:39;99022.13;;;15.92;57.94
11672;BME280;5892;43.412;24.612;2023-04-02T06:41:13;99026.97;;;15.68;56.64
11672;BME280;5892;43.412;24.612;2023-04-02T06:43:46;98943.75;;;14.80;56.55
11672;BME280;5892;43.412;24.612;2023-04-02T06:46:30;99015.16;;;15.68;56.53
11672;BME280;5892;43.412;24.612;2023-04-02T06:49:08;99048.19;;;16.28;56.48
11672;BME280;5892;43.412;24.612;2023-04-02T06:51:43;98928.16;;;15.51;55.05
11672;BME280;5892;43.412;24.612;2023-04-02T06:54:19;98959.47;;;15.99;55.26
11672;BME280;5892;43.412;24.612;2023-04-02T06:56:54;98963.50;;;16.09;54.33
11672;BME280;5892;43.412;24.612;2023-04-02T06:59:28;99079.47;;;16.69;54.15
11672;BME280;5892;43.412;24.612;2023-04-02T07:05:49;99071.09;;;17.09;55.11
11672;BME280;5892;43.412;24.612;2023-04-02T07:08:26;98982.34;;;16.37;53.24
11672;BME280;5892;43.412;24.612;2023-04-02T07:11:13;98985.91;;;16.37;53.83
11672;BME280;5892;43.412;24.612;2023-04-02T07:13:50;99138.09;;;17.32;53.88
11672;BME280;5892;43.412;24.612;2023-04-02T07:16:22;98964.16;;;16.32;53.39
11672;BME280;5892;43.412;24.612;2023-04-02T07:18:51;98975.78;;;16.56;52.96
11672;BME280;5892;43.412;24.612;2023-04-02T07:21:24;99140.25;;;17.53;53.29
11672;BME280;5892;43.412;24.612;2023-04-02T07:23:55;98981.44;;;16.70;54.14
11672;BME280;5892;43.412;24.612;2023-04-02T07:26:31;99103.84;;;17.55;54.24
11672;BME280;5892;43.412;24.612;2023-04-02T07:29:13;99008.88;;;16.89;54.13
11672;BME280;5892;43.412;24.612;2023-04-02T07:31:54;98987.97;;;16.47;53.35
11672;BME280;5892;43.412;24.612;2023-04-02T07:34:30;99064.31;;;17.00;53.94
11672;BME280;5892;43.412;24.612;2023-04-02T07:36:58;99077.38;;;17.03;53.72
11672;BME280;5892;43.412;24.612;2023-04-02T07:39:27;99048.72;;;16.81;53.63
11672;BME280;5892;43.412;24.612;2023-04-02T07:41:59;98976.63;;;16.19;55.08
11672;BME280;5892;43.412;24.612;2023-04-02T07:44:31;99104.06;;;17.28;55.57
11672;BME280;5892;43.412;24.612;2023-04-02T07:47:00;98993.28;;;16.67;54.47
11672;BME280;5892;43.412;24.612;2023-04-02T07:49:33;98957.59;;;16.54;54.07
11672;BME280;5892;43.412;24.612;2023-04-02T07:52:03;99024.31;;;16.90;53.79
11672;BME280;5892;43.412;24.612;2023-04-02T07:54:31;99103.69;;;17.33;53.34
11672;BME280;5892;43.412;24.612;2023-04-02T07:57:00;99029.69;;;16.72;54.05
11672;BME280;5892;43.412;24.612;2023-04-02T07:59:43;98996.59;;;16.83;55.01
11672;BME280;5892;43.412;24.612;2023-04-02T08:02:20;99131.16;;;17.53;54.13
11672;BME280;5892;43.412;24.612;2023-04-02T08:05:03;98975.84;;;16.59;53.97
11672;BME280;5892;43.412;24.612;2023-04-02T08:07:32;99124.50;;;17.64;53.29
11672;BME280;5892;43.412;24.612;2023-04-02T08:10:04;98975.75;;;16.48;53.83
11672;BME280;5892;43.412;24.612;2023-04-02T08:12:32;98999.69;;;16.74;54.30
11672;BME280;5892;43.412;24.612;2023-04-02T08:18:23;98981.41;;;16.63;54.27
11672;BME280;5892;43.412;24.612;2023-04-02T08:20:52;99011.94;;;16.77;54.48
11672;BME280;5892;43.412;24.612;2023-04-02T08:23:20;98975.88;;;16.63;54.33
11672;BME280;5892;43.412;24.612;2023-04-02T08:25:49;99076.88;;;17.45;55.56
11672;BME280;5892;43.412;24.612;2023-04-02T08:28:23;98979.28;;;16.97;55.30
11672;BME280;5892;43.412;24.612;2023-04-02T08:31:00;99001.50;;;17.07;54.54
11672;BME280;5892;43.412;24.612;2023-04-02T08:33:35;98987.69;;;17.11;54.07
11672;BME280;5892;43.412;24.612;2023-04-02T08:39:29;98999.66;;;17.32;54.27
11672;BME280;5892;43.412;24.612;2023-04-02T08:42:07;99045.03;;;17.75;54.11
11672;BME280;5892;43.412;24.612;2023-04-02T08:47:58;99070.69;;;17.62;52.99
11672;BME280;5892;43.412;24.612;2023-04-02T08:54:00;98993.97;;;17.73;51.87
11672;BME280;5892;43.412;24.612;2023-04-02T08:56:35;99061.41;;;18.05;50.71
11672;BME280;5892;43.412;24.612;2023-04-02T08:59:19;99022.16;;;17.89;51.23
11672;BME280;5892;43.412;24.612;2023-04-02T09:02:21;99111.50;;;18.62;49.40
11672;BME280;5892;43.412;24.612;2023-04-02T09:05:02;99045.59;;;18.20;49.61
11672;BME280;5892;43.412;24.612;2023-04-02T09:07:50;99117.06;;;18.62;49.65
11672;BME280;5892;43.412;24.612;2023-04-02T09:10:39;99155.19;;;18.93;50.00
11672;BME280;5892;43.412;24.612;2023-04-02T09:13:16;99031.28;;;18.04;49.50
11672;BME280;5892;43.412;24.612;2023-04-02T09:16:14;99013.06;;;17.99;45.85
11672;BME280;5892;43.412;24.612;2023-04-02T09:18:56;99061.00;;;18.03;46.79
11672;BME280;5892;43.412;24.612;2023-04-02T09:21:42;99081.75;;;18.55;47.62
11672;BME280;5892;43.412;24.612;2023-04-02T09:24:21;98984.50;;;17.81;48.15
11672;BME280;5892;43.412;24.612;2023-04-02T09:30:34;99015.72;;;17.74;47.40
11672;BME280;5892;43.412;24.612;2023-04-02T09:33:07;98993.25;;;17.97;47.80
11672;BME280;5892;43.412;24.612;2023-04-02T09:35:54;99037.78;;;18.61;48.06
11672;BME280;5892;43.412;24.612;2023-04-02T09:38:23;99010.00;;;19.11;47.39
11672;BME280;5892;43.412;24.612;2023-04-02T09:40:57;99059.59;;;19.12;44.87
11672;BME280;5892;43.412;24.612;2023-04-02T09:43:27;99052.88;;;18.92;43.57
11672;BME280;5892;43.412;24.612;2023-04-02T09:46:00;99002.50;;;18.54;44.71
11672;BME280;5892;43.412;24.612;2023-04-02T09:48:30;99004.88;;;18.74;45.01
11672;BME280;5892;43.412;24.612;2023-04-02T09:51:13;99118.31;;;19.53;43.83
11672;BME280;5892;43.412;24.612;2023-04-02T09:53:43;99146.44;;;19.80;42.80
11672;BME280;5892;43.412;24.612;2023-04-02T09:56:17;99116.31;;;19.08;41.31
11672;BME280;5892;43.412;24.612;2023-04-02T10:09:32;99123.47;;;19.55;42.67
11672;BME280;5892;43.412;24.612;2023-04-02T10:12:04;99011.25;;;18.88;43.97
11672;BME280;5892;43.412;24.612;2023-04-02T10:14:45;99051.25;;;19.30;41.99
11672;BME280;5892;43.412;24.612;2023-04-02T10:17:20;98971.16;;;19.03;42.12
11672;BME280;5892;43.412;24.612;2023-04-02T10:19:52;99033.81;;;19.19;40.68
11672;BME280;5892;43.412;24.612;2023-04-02T10:22:21;99124.56;;;19.89;41.17
11672;BME280;5892;43.412;24.612;2023-04-02T10:24:50;99118.66;;;19.76;42.29
11672;BME280;5892;43.412;24.612;2023-04-02T10:27:24;99114.75;;;19.56;41.81
11672;BME280;5892;43.412;24.612;2023-04-02T10:30:02;99137.75;;;19.64;41.67
11672;BME280;5892;43.412;24.612;2023-04-02T10:32:34;99114.31;;;19.33;41.15
11672;BME280;5892;43.412;24.612;2023-04-02T10:35:04;99132.59;;;19.41;41.92
11672;BME280;5892;43.412;24.612;2023-04-02T10:37:50;99134.19;;;19.49;40.93
11672;BME280;5892;43.412;24.612;2023-04-02T10:40:27;99107.59;;;19.34;41.09
11672;BME280;5892;43.412;24.612;2023-04-02T10:43:08;99141.75;;;19.45;41.51
11672;BME280;5892;43.412;24.612;2023-04-02T10:45:41;99104.41;;;19.53;41.41
11672;BME280;5892;43.412;24.612;2023-04-02T10:48:16;99040.97;;;19.02;40.86
11672;BME280;5892;43.412;24.612;2023-04-02T10:50:50;99087.34;;;19.58;40.95
11672;BME280;5892;43.412;24.612;2023-04-02T10:53:29;99141.69;;;19.87;40.89
11672;BME280;5892;43.412;24.612;2023-04-02T10:56:02;99136.97;;;19.67;38.84
11672;BME280;5892;43.412;24.612;2023-04-02T10:58:37;99148.84;;;19.74;39.26
11672;BME280;5892;43.412;24.612;2023-04-02T11:01:11;99111.94;;;19.70;39.26
11672;BME280;5892;43.412;24.612;2023-04-02T11:03:43;99121.03;;;19.88;39.73
11672;BME280;5892;43.412;24.612;2023-04-02T11:06:16;99036.13;;;19.59;39.50
11672;BME280;5892;43.412;24.612;2023-04-02T11:08:46;99130.81;;;20.36;38.89
11672;BME280;5892;43.412;24.612;2023-04-02T11:11:17;99099.44;;;20.21;39.61
11672;BME280;5892;43.412;24.612;2023-04-02T11:13:51;99133.56;;;20.39;38.09
11672;BME280;5892;43.412;24.612;2023-04-02T11:16:19;99050.03;;;19.59;38.49
11672;BME280;5892;43.412;24.612;2023-04-02T11:21:46;99135.19;;;20.33;37.79
11672;BME280;5892;43.412;24.612;2023-04-02T11:24:24;99094.28;;;20.16;37.31
11672;BME280;5892;43.412;24.612;2023-04-02T11:27:03;99122.38;;;20.53;37.33
11672;BME280;5892;43.412;24.612;2023-04-02T11:29:31;99133.03;;;20.65;36.97
11672;BME280;5892;43.412;24.612;2023-04-02T11:32:28;99105.34;;;20.41;36.66
11672;BME280;5892;43.412;24.612;2023-04-02T11:35:01;99083.53;;;20.36;37.00
11672;BME280;5892;43.412;24.612;2023-04-02T11:37:36;99054.38;;;19.71;38.14
11672;BME280;5892;43.412;24.612;2023-04-02T11:40:42;99000.09;;;19.24;38.04
11672;BME280;5892;43.412;24.612;2023-04-02T11:43:54;99115.44;;;19.92;38.95
11672;BME280;5892;43.412;24.612;2023-04-02T11:46:40;99116.97;;;20.11;38.71
11672;BME280;5892;43.412;24.612;2023-04-02T11:49:31;99126.56;;;19.99;38.67
11672;BME280;5892;43.412;24.612;2023-04-02T11:51:59;99106.78;;;19.72;37.06
11672;BME280;5892;43.412;24.612;2023-04-02T11:54:53;99025.09;;;19.10;38.39
11672;BME280;5892;43.412;24.612;2023-04-02T11:57:27;99126.19;;;19.94;38.60
11672;BME280;5892;43.412;24.612;2023-04-02T12:03:42;99042.50;;;19.31;37.74
11672;BME280;5892;43.412;24.612;2023-04-02T12:06:22;99102.69;;;20.05;36.90
11672;BME280;5892;43.412;24.612;2023-04-02T12:09:00;99106.72;;;19.94;36.89
11672;BME280;5892;43.412;24.612;2023-04-02T12:11:32;99060.75;;;19.57;37.12
11672;BME280;5892;43.412;24.612;2023-04-02T12:14:00;99079.34;;;19.81;36.36
11672;BME280;5892;43.412;24.612;2023-04-02T12:16:32;99111.34;;;20.32;35.66
11672;BME280;5892;43.412;24.612;2023-04-02T12:19:20;99049.16;;;19.80;35.01
11672;BME280;5892;43.412;24.612;2023-04-02T12:21:50;99097.56;;;19.89;35.75
11672;BME280;5892;43.412;24.612;2023-04-02T12:27:26;99088.88;;;19.80;36.22
11672;BME280;5892;43.412;24.612;2023-04-02T12:29:54;99034.16;;;19.42;36.24
11672;BME280;5892;43.412;24.612;2023-04-02T12:32:26;99065.88;;;19.76;34.30
11672;BME280;5892;43.412;24.612;2023-04-02T12:34:56;99005.63;;;19.45;35.77
11672;BME280;5892;43.412;24.612;2023-04-02T12:37:25;99093.94;;;20.14;36.18
11672;BME280;5892;43.412;24.612;2023-04-02T12:40:19;99088.47;;;19.85;35.90
11672;BME280;5892;43.412;24.612;2023-04-02T12:42:46;99074.97;;;19.80;35.04
11672;BME280;5892;43.412;24.612;2023-04-02T12:45:21;99048.03;;;19.67;34.44
11672;BME280;5892;43.412;24.612;2023-04-02T12:48:04;99071.34;;;19.98;34.89
11672;BME280;5892;43.412;24.612;2023-04-02T12:50:33;99094.28;;;20.23;35.74
11672;BME280;5892;43.412;24.612;2023-04-02T12:53:00;99092.22;;;20.45;35.87
11672;BME280;5892;43.412;24.612;2023-04-02T12:55:27;99090.03;;;20.77;36.15
11672;BME280;5892;43.412;24.612;2023-04-02T13:01:15;99102.13;;;21.04;36.19
11672;BME280;5892;43.412;24.612;2023-04-02T13:03:59;99096.97;;;21.06;34.42
11672;BME280;5892;43.412;24.612;2023-04-02T13:09:47;99085.66;;;20.76;34.28
11672;BME280;5892;43.412;24.612;2023-04-02T13:12:25;99074.69;;;20.51;35.29
11672;BME280;5892;43.412;24.612;2023-04-02T13:14:58;99065.25;;;20.31;36.00
11672;BME280;5892;43.412;24.612;2023-04-02T13:17:40;99084.91;;;20.72;37.02
11672;BME280;5892;43.412;24.612;2023-04-02T13:20:26;99093.97;;;20.80;37.86
11672;BME280;5892;43.412;24.612;2023-04-02T13:22:54;99094.41;;;20.75;37.37
11672;BME280;5892;43.412;24.612;2023-04-02T13:25:27;99058.88;;;20.34;37.59
11672;BME280;5892;43.412;24.612;2023-04-02T13:27:55;99120.09;;;20.34;37.24
11672;BME280;5892;43.412;24.612;2023-04-02T13:30:25;99093.91;;;20.17;36.41
11672;BME280;5892;43.412;24.612;2023-04-02T13:32:52;99089.88;;;20.25;34.79
11672;BME280;5892;43.412;24.612;2023-04-02T13:35:20;99092.25;;;20.38;35.26
11672;BME280;5892;43.412;24.612;2023-04-02T13:37:47;99032.66;;;20.28;35.60
11672;BME280;5892;43.412;24.612;2023-04-02T13:40:16;99101.53;;;20.83;36.57
11672;BME280;5892;43.412;24.612;2023-04-02T13:42:45;99064.63;;;20.68;35.87
11672;BME280;5892;43.412;24.612;2023-04-02T13:45:23;99084.81;;;20.83;36.28
11672;BME280;5892;43.412;24.612;2023-04-02T13:51:16;98966.97;;;19.79;37.38
11672;BME280;5892;43.412;24.612;2023-04-02T13:53:44;99048.22;;;20.18;37.23
11672;BME280;5892;43.412;24.612;2023-04-02T13:56:12;99084.66;;;20.45;37.27
11672;BME280;5892;43.412;24.612;2023-04-02T13:58:40;98971.09;;;19.46;37.50
11672;BME280;5892;43.412;24.612;2023-04-02T14:01:08;99006.69;;;19.83;38.70
11672;BME280;5892;43.412;24.612;2023-04-02T14:03:36;99066.56;;;20.02;38.27
11672;BME280;5892;43.412;24.612;2023-04-02T14:06:31;99032.03;;;19.96;38.42
11672;BME280;5892;43.412;24.612;2023-04-02T14:09:12;99048.22;;;20.11;37.10
11672;BME280;5892;43.412;24.612;2023-04-02T14:11:48;99028.50;;;19.84;37.15
11672;BME280;5892;43.412;24.612;2023-04-02T14:14:43;99079.56;;;20.22;37.39
11672;BME280;5892;43.412;24.612;2023-04-02T14:17:20;99070.41;;;20.29;37.40
11672;BME280;5892;43.412;24.612;2023-04-02T14:20:17;99070.50;;;20.08;36.49
11672;BME280;5892;43.412;24.612;2023-04-02T14:22:55;99077.31;;;19.93;36.87
11672;BME280;5892;43.412;24.612;2023-04-02T14:25:32;99079.69;;;19.91;37.63
11672;BME280;5892;43.412;24.612;2023-04-02T14:28:07;99084.13;;;19.77;37.94
11672;BME280;5892;43.412;24.612;2023-04-02T14:30:47;99048.84;;;19.39;38.20
11672;BME280;5892;43.412;24.612;2023-04-02T14:33:29;99073.44;;;19.62;38.69
11672;BME280;5892;43.412;24.612;2023-04-02T14:36:06;99006.84;;;19.19;38.67
11672;BME280;5892;43.412;24.612;2023-04-02T14:38:42;99072.25;;;19.66;38.14
11672;BME280;5892;43.412;24.612;2023-04-02T14:41:17;99057.59;;;19.52;37.80
11672;BME280;5892;43.412;24.612;2023-04-02T14:43:51;99083.78;;;19.54;37.37
11672;BME280;5892;43.412;24.612;2023-04-02T14:46:25;99083.41;;;19.31;36.47